Terminal Aerodrome Forecast
Issued by NWS

Home | Current Version | Previous Version | Text Only | Print | Product List | Glossary On
Versions: 1 2 3 4 5 6 7 8 9 10 11 12 13 14 15 16 17 18 19 20 21 22 23 24 25 26 27 28 29 30 31 32 33 34 35
000
FTUS45 KGJT 261135
TAFASE
TAF
KASE 261135Z 2612/2712 36004KT 2SM -SN BR BKN008
      TEMPO 2612/2616 1/2SM -SN FZFG OVC007
     FM261600 21005KT 5SM -SN BR SCT012 OVC025
     FM261900 35005KT 4SM -SHSN BR OVC020
     FM270200 34005KT P6SM VCSH OVC020
     FM270600 20004KT P6SM VCSH BKN020 OVC040=

USA.gov is the U.S. government's official web portal to all federal, state and local government web resources and services.